createdAt,value
2022-09-15T00:02:03.602Z,10.39
2022-09-15T00:05:03.565Z,10.35
2022-09-15T00:08:03.534Z,10.32
2022-09-15T00:11:03.538Z,10.28
2022-09-15T00:14:03.540Z,10.24
2022-09-15T00:17:03.564Z,10.27
2022-09-15T00:20:03.541Z,10.21
2022-09-15T00:23:03.652Z,10.21
2022-09-15T00:26:03.550Z,10.16
2022-09-15T00:29:03.546Z,10.13
2022-09-15T00:32:03.552Z,10.09
2022-09-15T00:35:03.550Z,10.13
2022-09-15T00:38:03.555Z,10.09
2022-09-15T00:41:03.579Z,10.12
2022-09-15T00:44:03.561Z,10.12
2022-09-15T00:47:18.564Z,10.12
2022-09-15T00:50:03.567Z,10.12
2022-09-15T00:53:03.563Z,10.13
2022-09-15T00:56:03.570Z,10.04
2022-09-15T00:59:03.599Z,10.09
2022-09-15T01:02:03.611Z,10.11
2022-09-15T01:05:03.576Z,10.12
2022-09-15T01:08:03.582Z,10.04
2022-09-15T01:11:03.582Z,10
2022-09-15T01:14:03.581Z,10.01
2022-09-15T01:17:03.607Z,9.96
2022-09-15T01:20:03.591Z,9.99
2022-09-15T01:23:03.591Z,10.01
2022-09-15T01:26:03.593Z,9.96
2022-09-15T01:29:03.598Z,9.99
2022-09-15T01:32:03.639Z,9.99
2022-09-15T01:35:03.622Z,9.99
2022-09-15T01:38:03.597Z,9.95
2022-09-15T01:41:03.609Z,9.89
2022-09-15T01:44:03.622Z,9.91
2022-09-15T01:47:03.612Z,9.92
2022-09-15T01:50:03.616Z,9.87
2022-09-15T01:53:03.641Z,9.83
2022-09-15T01:56:03.621Z,9.86
2022-09-15T01:59:03.623Z,9.88
2022-09-15T02:02:03.760Z,9.8
2022-09-15T02:05:03.629Z,9.83
2022-09-15T02:08:03.636Z,9.8
2022-09-15T02:11:03.666Z,9.8
2022-09-15T02:14:03.652Z,9.82
2022-09-15T02:17:03.689Z,9.81
2022-09-15T02:20:03.651Z,9.81
2022-09-15T02:23:03.660Z,9.75
2022-09-15T02:26:03.661Z,9.75
2022-09-15T02:29:03.686Z,9.69
2022-09-15T02:32:06.935Z,9.69
2022-09-15T02:35:03.663Z,9.7
2022-09-15T02:38:03.671Z,9.65
2022-09-15T02:41:03.676Z,9.66
2022-09-15T02:44:03.680Z,9.67
2022-09-15T02:47:03.711Z,9.68
2022-09-15T02:50:03.690Z,9.68
2022-09-15T02:53:03.696Z,9.61
2022-09-15T02:56:03.695Z,9.6
2022-09-15T02:59:03.698Z,9.61
2022-09-15T03:02:03.710Z,9.64
2022-09-15T03:05:03.815Z,9.68
2022-09-15T03:08:03.714Z,9.73
2022-09-15T03:11:03.713Z,9.74
2022-09-15T03:14:03.713Z,9.73
2022-09-15T03:17:03.715Z,9.74
2022-09-15T03:20:03.714Z,9.74
2022-09-15T03:23:03.732Z,9.73
2022-09-15T03:26:03.714Z,9.72
2022-09-15T03:29:03.714Z,9.72
2022-09-15T03:32:03.714Z,9.79
2022-09-15T03:35:03.715Z,9.8
2022-09-15T03:38:03.723Z,9.87
2022-09-15T03:41:03.745Z,9.92
2022-09-15T03:44:03.718Z,9.98
2022-09-15T03:47:03.729Z,9.94
2022-09-15T03:50:03.736Z,9.93
2022-09-15T03:53:03.743Z,9.96
2022-09-15T03:56:03.746Z,9.87
2022-09-15T03:59:03.778Z,9.92
2022-09-15T04:02:03.823Z,9.84
2022-09-15T04:05:03.756Z,9.91
2022-09-15T04:08:03.763Z,9.91
2022-09-15T04:11:03.767Z,9.9
2022-09-15T04:14:03.771Z,9.82
2022-09-15T04:17:03.801Z,9.82
2022-09-15T04:20:03.785Z,9.82
2022-09-15T04:23:03.787Z,9.81
2022-09-15T04:26:03.796Z,9.75
2022-09-15T04:29:04.746Z,9.77
2022-09-15T04:32:03.803Z,9.78
2022-09-15T04:35:03.923Z,9.79
2022-09-15T04:38:03.815Z,9.79
2022-09-15T04:41:03.873Z,9.79
2022-09-15T04:44:03.823Z,9.85
2022-09-15T04:47:03.857Z,9.92
2022-09-15T04:50:03.828Z,9.97
2022-09-15T04:53:03.920Z,10.02
2022-09-15T04:56:03.842Z,10.05
2022-09-15T04:59:04.422Z,10.07
2022-09-15T05:02:03.924Z,10.06
2022-09-15T05:05:03.863Z,10.02
2022-09-15T05:08:03.862Z,10.07
2022-09-15T05:11:03.896Z,10.06
2022-09-15T05:14:03.870Z,10.05
2022-09-15T05:17:03.876Z,10.11
2022-09-15T05:20:03.883Z,10.14
2022-09-15T05:23:03.888Z,10.12
2022-09-15T05:26:03.892Z,10.17
2022-09-15T05:29:03.923Z,10.15
2022-09-15T05:32:03.903Z,10.14
2022-09-15T05:35:03.915Z,10.18
2022-09-15T05:38:03.909Z,10.16
2022-09-15T05:41:03.925Z,10.2
2022-09-15T05:44:03.927Z,10.22
2022-09-15T05:47:03.957Z,10.18
2022-09-15T05:50:03.937Z,10.18
2022-09-15T05:53:03.938Z,10.18
2022-09-15T05:56:03.938Z,10.17
2022-09-15T05:59:04.062Z,10.16
2022-09-15T06:02:03.972Z,10.23
2022-09-15T06:05:04.097Z,10.24
2022-09-15T06:08:03.968Z,10.19
2022-09-15T06:11:03.985Z,10.2
2022-09-15T06:14:03.978Z,10.25
2022-09-15T06:17:03.987Z,10.25
2022-09-15T06:20:03.995Z,10.32
2022-09-15T06:23:04.023Z,10.36
2022-09-15T06:26:04.002Z,10.39
2022-09-15T06:29:04.006Z,10.42
2022-09-15T06:32:04.040Z,10.46
2022-09-15T06:35:04.023Z,10.48
2022-09-15T06:38:04.026Z,10.51
2022-09-15T06:41:04.055Z,10.53
2022-09-15T06:44:04.039Z,10.53
2022-09-15T06:47:04.047Z,10.52
2022-09-15T06:50:04.053Z,10.55
2022-09-15T06:53:04.065Z,10.52
2022-09-15T06:56:04.068Z,10.52
2022-09-15T06:59:04.108Z,10.55
2022-09-15T07:02:05.217Z,10.56
2022-09-15T07:05:04.096Z,10.52
2022-09-15T07:08:04.093Z,10.55
2022-09-15T07:11:04.112Z,10.53
2022-09-15T07:14:04.119Z,10.55
2022-09-15T07:17:04.146Z,10.59
2022-09-15T07:20:04.132Z,10.56
2022-09-15T07:23:04.140Z,10.66
2022-09-15T07:26:04.141Z,10.73
2022-09-15T07:29:04.153Z,10.79
2022-09-15T07:32:04.170Z,10.84
2022-09-15T07:35:04.191Z,10.78
2022-09-15T07:38:04.168Z,10.74
2022-09-15T07:41:04.177Z,10.77
2022-09-15T07:44:04.195Z,10.77
2022-09-15T07:47:04.190Z,10.78
2022-09-15T07:50:04.200Z,10.68
2022-09-15T07:53:04.228Z,10.7
2022-09-15T07:56:04.208Z,10.7
2022-09-15T07:59:04.216Z,10.74
2022-09-15T08:02:04.284Z,10.85
2022-09-15T08:05:04.231Z,10.9
2022-09-15T08:08:04.241Z,10.95
2022-09-15T08:11:04.287Z,10.95
2022-09-15T08:14:04.261Z,11.02
2022-09-15T08:17:06.105Z,11.07
2022-09-15T08:20:04.270Z,11.08
2022-09-15T08:23:04.278Z,11.05
2022-09-15T08:26:04.284Z,10.97
2022-09-15T08:29:04.308Z,10.96
2022-09-15T08:32:04.294Z,10.96
2022-09-15T08:35:04.298Z,10.94
2022-09-15T08:38:04.303Z,10.9
2022-09-15T08:41:04.321Z,10.89
2022-09-15T08:44:04.325Z,10.85
2022-09-15T08:47:04.354Z,10.77
2022-09-15T08:50:04.384Z,10.79
2022-09-15T08:53:04.341Z,10.77
2022-09-15T08:56:07.168Z,10.8
2022-09-15T08:59:04.358Z,10.63
2022-09-15T09:02:04.412Z,10.79
2022-09-15T09:05:04.434Z,10.79
2022-09-15T09:08:04.379Z,10.89
2022-09-15T09:11:04.380Z,10.83
2022-09-15T09:14:04.386Z,10.78
2022-09-15T09:17:04.400Z,10.77
2022-09-15T09:20:04.400Z,10.68
2022-09-15T09:23:04.446Z,10.75
2022-09-15T09:26:07.478Z,10.61
2022-09-15T09:29:04.428Z,10.65
2022-09-15T09:32:04.439Z,10.64
2022-09-15T09:35:04.446Z,10.84
2022-09-15T09:38:04.455Z,10.91
2022-09-15T09:41:04.483Z,10.87
2022-09-15T09:44:04.471Z,10.8
2022-09-15T09:47:04.485Z,10.97
2022-09-15T09:50:04.493Z,10.75
2022-09-15T09:53:04.496Z,10.91
2022-09-15T09:56:04.501Z,10.93
2022-09-15T09:59:04.535Z,10.88
2022-09-15T10:02:04.525Z,10.58
2022-09-15T10:05:04.597Z,10.62
2022-09-15T10:08:04.540Z,10.34
2022-09-15T10:11:04.548Z,9.88
2022-09-15T10:14:04.561Z,9.9
2022-09-15T10:17:04.659Z,9.97
2022-09-15T10:20:04.571Z,10.23
2022-09-15T10:23:04.582Z,9.97
2022-09-15T10:26:04.590Z,10.05
2022-09-15T10:29:04.608Z,9.74
2022-09-15T10:32:04.668Z,9.94
2022-09-15T10:35:04.655Z,9.78
2022-09-15T10:38:04.631Z,9.57
2022-09-15T10:41:04.637Z,9.76
2022-09-15T10:44:04.668Z,9.74
2022-09-15T10:47:04.667Z,9.77
2022-09-15T10:50:04.670Z,9.69
2022-09-15T10:53:04.708Z,9.72
2022-09-15T10:56:04.692Z,9.44
2022-09-15T10:59:04.707Z,9.57
2022-09-15T11:02:04.765Z,9.57
2022-09-15T11:05:04.733Z,9.6
2022-09-15T11:08:04.728Z,9.54
2022-09-15T11:11:04.764Z,9.43
2022-09-15T11:14:04.753Z,9.5
2022-09-15T11:17:04.765Z,9.49
2022-09-15T11:20:04.782Z,9.64
2022-09-15T11:23:04.783Z,9.46
2022-09-15T11:26:04.796Z,9.37
2022-09-15T11:29:04.827Z,9.1
2022-09-15T11:32:04.826Z,9.07
2022-09-15T11:35:04.832Z,9
2022-09-15T11:38:04.837Z,8.86
2022-09-15T11:41:04.847Z,8.97
2022-09-15T11:44:04.901Z,9.32
2022-09-15T11:47:04.895Z,9.59
2022-09-15T11:50:04.897Z,9.92
2022-09-15T11:53:04.881Z,9.81
2022-09-15T11:56:04.895Z,9.75
2022-09-15T11:59:04.907Z,9.84
2022-09-15T12:02:05.040Z,9.85
2022-09-15T12:05:04.956Z,9.66
2022-09-15T12:08:04.942Z,9.63
2022-09-15T12:11:04.951Z,9.66
2022-09-15T12:14:04.970Z,9.5
2022-09-15T12:17:04.977Z,9.4
2022-09-15T12:20:05.057Z,9.42
2022-09-15T12:23:05.023Z,9.53
2022-09-15T12:26:05.007Z,9.67
2022-09-15T12:29:05.024Z,9.77
2022-09-15T12:32:05.040Z,9.75
2022-09-15T12:35:05.044Z,9.87
2022-09-15T12:38:05.056Z,9.92
2022-09-15T12:41:05.099Z,9.93
2022-09-15T12:44:05.085Z,10.06
2022-09-15T12:47:05.094Z,9.9
2022-09-15T12:50:05.152Z,9.7
2022-09-15T12:53:05.127Z,9.71
2022-09-15T12:56:05.134Z,9.68
2022-09-15T12:59:06.502Z,9.83
2022-09-15T13:02:05.202Z,9.81
2022-09-15T13:05:05.185Z,9.72
2022-09-15T13:08:05.196Z,9.66
2022-09-15T13:11:05.206Z,9.63
2022-09-15T13:14:05.233Z,9.58
2022-09-15T13:17:05.253Z,9.41
2022-09-15T13:20:05.257Z,8.94
2022-09-15T13:23:05.263Z,8.94
2022-09-15T13:26:05.268Z,8.8
2022-09-15T13:29:05.284Z,8.9
2022-09-15T13:32:05.303Z,8.77
2022-09-15T13:35:12.601Z,8.88
2022-09-15T13:38:13.888Z,8.91
2022-09-15T13:41:05.345Z,9.01
2022-09-15T13:44:05.358Z,9.01
2022-09-15T13:47:05.370Z,8.97
2022-09-15T13:50:05.382Z,8.92
2022-09-15T13:53:05.422Z,9.04
2022-09-15T13:56:05.420Z,9.03
2022-09-15T13:59:11.002Z,9.07
2022-09-15T14:02:05.489Z,9
2022-09-15T14:05:05.456Z,8.94
2022-09-15T14:08:05.472Z,9.02
2022-09-15T14:11:05.504Z,9.09
2022-09-15T14:14:05.495Z,9.07
2022-09-15T14:17:05.620Z,9.23
2022-09-15T14:20:05.538Z,9.26
2022-09-15T14:23:05.545Z,9.34
2022-09-15T14:26:05.557Z,9.27
2022-09-15T14:29:05.598Z,9.35
2022-09-15T14:32:05.633Z,9.31
2022-09-15T14:35:05.605Z,9.45
2022-09-15T14:38:05.625Z,9.59
2022-09-15T14:41:05.640Z,9.38
2022-09-15T14:44:05.655Z,9.35
2022-09-15T14:47:05.696Z,9.22
2022-09-15T14:50:05.684Z,9.05
2022-09-15T14:53:05.687Z,9.03
2022-09-15T14:56:08.007Z,8.94
2022-09-15T14:59:05.721Z,9.01
2022-09-15T15:02:05.760Z,9.05
2022-09-15T15:05:05.780Z,9.02
2022-09-15T15:08:05.761Z,9.07
2022-09-15T15:11:05.777Z,9.1
2022-09-15T15:14:05.807Z,9.07
2022-09-15T15:17:05.984Z,9.17
2022-09-15T15:20:05.829Z,9.09
2022-09-15T15:23:05.886Z,9.12
2022-09-15T15:26:05.862Z,9.16
2022-09-15T15:29:05.875Z,9.15
2022-09-15T15:32:05.936Z,9.19
2022-09-15T15:35:05.908Z,9.18
2022-09-15T15:38:06.002Z,9.21
2022-09-15T15:41:05.974Z,9.14
2022-09-15T15:44:05.952Z,9.02
2022-09-15T15:47:05.965Z,9.1
2022-09-15T15:50:14.171Z,9.15
2022-09-15T15:53:05.998Z,9.21
2022-09-15T15:56:06.022Z,9.15
2022-09-15T15:59:06.055Z,9.13
2022-09-15T16:02:06.159Z,9.15
2022-09-15T16:05:06.062Z,9.21
2022-09-15T16:08:06.080Z,9.19
2022-09-15T16:11:06.095Z,9.13
2022-09-15T16:14:06.110Z,9.14
2022-09-15T16:17:06.150Z,9.11
2022-09-15T16:20:06.141Z,9.12
2022-09-15T16:23:06.154Z,9.12
2022-09-15T16:26:06.185Z,9.24
2022-09-15T16:29:06.187Z,9.32
2022-09-15T16:32:06.205Z,9.67
2022-09-15T16:35:06.240Z,9.75
2022-09-15T16:38:06.231Z,9.8
2022-09-15T16:41:06.249Z,10
2022-09-15T16:44:06.260Z,9.89
2022-09-15T16:47:06.279Z,9.98
2022-09-15T16:50:06.291Z,9.92
2022-09-15T16:53:06.326Z,9.97
2022-09-15T16:56:06.316Z,9.99
2022-09-15T16:59:06.332Z,9.95
2022-09-15T17:02:06.372Z,9.99
2022-09-15T17:05:06.369Z,10.02
2022-09-15T17:08:06.384Z,10.01
2022-09-15T17:11:06.437Z,9.95
2022-09-15T17:14:06.410Z,9.94
2022-09-15T17:17:06.431Z,9.91
2022-09-15T17:20:06.446Z,9.89
2022-09-15T17:23:06.458Z,9.85
2022-09-15T17:26:06.477Z,9.85
2022-09-15T17:29:06.508Z,9.89
2022-09-15T17:32:06.503Z,9.79
2022-09-15T17:35:06.521Z,9.82
2022-09-15T17:38:06.530Z,9.83
2022-09-15T17:41:06.544Z,9.79
2022-09-15T17:44:06.551Z,9.79
2022-09-15T17:47:06.592Z,9.79
2022-09-15T17:50:06.591Z,9.77
2022-09-15T17:53:09.618Z,9.74
2022-09-15T17:56:06.620Z,9.74
2022-09-15T17:59:06.635Z,9.67
2022-09-15T18:02:06.697Z,9.73
2022-09-15T18:05:06.685Z,9.72
2022-09-15T18:08:06.672Z,9.73
2022-09-15T18:11:06.690Z,9.69
2022-09-15T18:14:06.703Z,9.72
2022-09-15T18:17:06.713Z,9.73
2022-09-15T18:20:06.724Z,9.77
2022-09-15T18:23:06.762Z,9.73
2022-09-15T18:26:06.752Z,9.76
2022-09-15T18:29:06.768Z,9.79
2022-09-15T18:32:06.779Z,9.84
2022-09-15T18:35:06.788Z,9.89
2022-09-15T18:38:06.804Z,9.9
2022-09-15T18:41:06.840Z,9.91
2022-09-15T18:44:06.838Z,9.94
2022-09-15T18:47:06.852Z,9.95
2022-09-15T18:50:06.864Z,10.04
2022-09-15T18:53:06.871Z,10.02
2022-09-15T18:56:06.885Z,10.04
2022-09-15T18:59:06.926Z,10.03
2022-09-15T19:02:06.972Z,10.04
2022-09-15T19:05:06.927Z,10
2022-09-15T19:08:06.932Z,10
2022-09-15T19:11:06.943Z,9.99
2022-09-15T19:14:06.956Z,9.98
2022-09-15T19:17:07.044Z,10.07
2022-09-15T19:20:06.982Z,10
2022-09-15T19:23:06.998Z,10.01
2022-09-15T19:26:07.006Z,10
2022-09-15T19:29:07.019Z,10.05
2022-09-15T19:32:07.029Z,10.01
2022-09-15T19:35:07.064Z,10.04
2022-09-15T19:38:07.057Z,10.08
2022-09-15T19:41:07.068Z,10.04
2022-09-15T19:44:09.469Z,10.06
2022-09-15T19:47:07.088Z,10.01
2022-09-15T19:50:07.095Z,10.02
2022-09-15T19:53:07.137Z,10.03
2022-09-15T19:56:07.114Z,9.96
2022-09-15T19:59:07.128Z,9.91
2022-09-15T20:02:07.184Z,9.85
2022-09-15T20:05:07.147Z,9.88
2022-09-15T20:08:07.167Z,9.84
2022-09-15T20:11:07.198Z,9.86
2022-09-15T20:14:07.185Z,9.88
2022-09-15T20:17:07.258Z,9.92
2022-09-15T20:20:07.205Z,9.98
2022-09-15T20:23:07.224Z,10.01
2022-09-15T20:26:07.220Z,9.98
2022-09-15T20:29:07.257Z,9.98
2022-09-15T20:32:07.247Z,10.04
2022-09-15T20:35:07.273Z,9.96
2022-09-15T20:38:07.280Z,9.93
2022-09-15T20:41:07.274Z,9.85
2022-09-15T20:44:07.279Z,9.77
2022-09-15T20:47:07.317Z,9.77
2022-09-15T20:50:07.304Z,9.72
2022-09-15T20:53:07.343Z,9.75
2022-09-15T20:56:07.334Z,9.77
2022-09-15T20:59:07.328Z,9.81
2022-09-15T21:02:07.396Z,9.76
2022-09-15T21:05:07.374Z,9.71
2022-09-15T21:08:07.371Z,9.69
2022-09-15T21:11:07.370Z,9.65
2022-09-15T21:14:07.374Z,9.6
2022-09-15T21:17:07.391Z,9.61
2022-09-15T21:20:07.401Z,9.56
2022-09-15T21:23:07.437Z,9.52
2022-09-15T21:26:07.414Z,9.52
2022-09-15T21:29:07.421Z,9.47
2022-09-15T21:32:07.481Z,9.49
2022-09-15T21:35:07.435Z,9.46
2022-09-15T21:38:07.450Z,9.54
2022-09-15T21:41:07.476Z,9.55
2022-09-15T21:44:07.457Z,9.55
2022-09-15T21:47:07.465Z,9.56
2022-09-15T21:50:07.473Z,9.61
2022-09-15T21:53:07.488Z,9.6
2022-09-15T21:56:07.483Z,9.64
2022-09-15T21:59:07.518Z,9.62
2022-09-15T22:02:07.519Z,9.58
2022-09-15T22:05:07.503Z,9.56
2022-09-15T22:08:07.510Z,9.6
2022-09-15T22:11:07.515Z,9.57
2022-09-15T22:14:07.520Z,9.49
2022-09-15T22:17:07.550Z,9.48
2022-09-15T22:20:07.522Z,9.47
2022-09-15T22:23:07.543Z,9.53
2022-09-15T22:26:07.539Z,9.52
2022-09-15T22:29:07.540Z,9.51
2022-09-15T22:32:07.537Z,9.5
2022-09-15T22:35:07.570Z,9.49
2022-09-15T22:38:07.563Z,9.48
2022-09-15T22:41:07.557Z,9.5
2022-09-15T22:44:07.564Z,9.44
2022-09-15T22:47:07.569Z,9.45
2022-09-15T22:50:07.569Z,9.47
2022-09-15T22:53:07.603Z,9.42
2022-09-15T22:56:07.570Z,9.4
2022-09-15T22:59:07.575Z,9.41
2022-09-15T23:02:07.588Z,9.41
2022-09-15T23:05:07.584Z,9.42
2022-09-15T23:08:07.584Z,9.42
2022-09-15T23:11:07.616Z,9.46
2022-09-15T23:14:07.590Z,9.45
2022-09-15T23:17:07.594Z,9.4
2022-09-15T23:20:07.592Z,9.4
2022-09-15T23:23:07.603Z,9.37
2022-09-15T23:26:07.598Z,9.38
2022-09-15T23:29:07.630Z,9.4
2022-09-15T23:32:07.601Z,9.35
2022-09-15T23:35:07.601Z,9.36
2022-09-15T23:38:07.609Z,9.3
2022-09-15T23:41:07.599Z,9.33
2022-09-15T23:44:07.609Z,9.34
2022-09-15T23:47:07.654Z,9.33
2022-09-15T23:50:07.623Z,9.33
2022-09-15T23:53:07.643Z,9.32
2022-09-15T23:56:07.684Z,9.31
2022-09-15T23:59:07.687Z,9.31
